KGIF

Winter Haven's Gilbert Airport

Winter Haven, Florida, USA
METAR KGIF 140423Z AUTO 36004KT 10SM SCT029 SCT034 BKN050 25/22 A3009 RMK AO2 T02500222
Observed Flight Rules
Nov-14 @ 04:23 UTC (26 minutes ago) Visual Flight Rules
Wind Visibility Clouds
360° at 4 knots 10 miles
  • Scattered at 2,900' AGL
  • Scattered at 3,400' AGL
  • Broken at 5,000' AGL
Temperatures Readings
Current 25°C / 77°F
Dewpoint 22°C / 72°F
Humidity 83%
Altimeter 30.09" Hg
Pressure 1019 hPa
Elevation 43
METAR KGIF 140423Z AUTO 36004KT 10SM SCT029 SCT034 BKN050 25/22 A3009 RMK AO2 T02500222
Observed Flight Rules
Nov-14 @ 04:23 UTC
(26 minutes ago)
VFR
Wind Visibility
360° at 4 knots 10 miles
Clouds
  • Scattered at 2,900' AGL
  • Scattered at 3,400' AGL
  • Broken at 5,000' AGL
Temperature Dewpoint
25°C / 77°F 22°C / 72°F
Humidity Altimeter Pressure
83% 30.09" Hg 1019 hPa